sensor_id;sensor_type;location;lat;lon;timestamp;P1;durP1;ratioP1;P2;durP2;ratioP2
13568;SDS011;6856;51.460;7.158;2023-07-16T00:01:50;1.38;;;1.10;;
13568;SDS011;6856;51.460;7.158;2023-07-16T00:04:24;1.52;;;1.00;;
13568;SDS011;6856;51.460;7.158;2023-07-16T00:07:01;1.52;;;1.05;;
13568;SDS011;6856;51.460;7.158;2023-07-16T00:09:35;1.15;;;0.95;;
13568;SDS011;6856;51.460;7.158;2023-07-16T00:12:09;1.30;;;1.00;;
13568;SDS011;6856;51.460;7.158;2023-07-16T00:14:43;1.98;;;1.10;;
13568;SDS011;6856;51.460;7.158;2023-07-16T00:17:16;1.65;;;1.10;;
13568;SDS011;6856;51.460;7.158;2023-07-16T00:19:51;1.33;;;0.93;;
13568;SDS011;6856;51.460;7.158;2023-07-16T00:22:27;1.25;;;1.00;;
13568;SDS011;6856;51.460;7.158;2023-07-16T00:25:00;2.15;;;1.30;;
13568;SDS011;6856;51.460;7.158;2023-07-16T00:27:34;1.75;;;0.90;;
13568;SDS011;6856;51.460;7.158;2023-07-16T00:30:08;2.38;;;1.20;;
13568;SDS011;6856;51.460;7.158;2023-07-16T00:32:43;2.58;;;1.08;;
13568;SDS011;6856;51.460;7.158;2023-07-16T00:35:17;1.15;;;1.02;;
13568;SDS011;6856;51.460;7.158;2023-07-16T00:37:53;1.05;;;0.82;;
13568;SDS011;6856;51.460;7.158;2023-07-16T00:40:27;3.50;;;1.30;;
13568;SDS011;6856;51.460;7.158;2023-07-16T00:43:01;2.78;;;1.48;;
13568;SDS011;6856;51.460;7.158;2023-07-16T00:45:35;3.13;;;1.23;;
13568;SDS011;6856;51.460;7.158;2023-07-16T00:48:10;3.08;;;1.40;;
13568;SDS011;6856;51.460;7.158;2023-07-16T00:50:45;2.28;;;0.88;;
13568;SDS011;6856;51.460;7.158;2023-07-16T00:53:22;3.25;;;1.15;;
13568;SDS011;6856;51.460;7.158;2023-07-16T00:55:56;3.30;;;1.13;;
13568;SDS011;6856;51.460;7.158;2023-07-16T00:58:31;1.88;;;1.08;;
13568;SDS011;6856;51.460;7.158;2023-07-16T01:01:05;2.17;;;1.05;;
13568;SDS011;6856;51.460;7.158;2023-07-16T01:03:39;1.65;;;0.98;;
13568;SDS011;6856;51.460;7.158;2023-07-16T01:06:16;2.58;;;1.13;;
13568;SDS011;6856;51.460;7.158;2023-07-16T01:09:01;1.23;;;0.90;;
13568;SDS011;6856;51.460;7.158;2023-07-16T01:11:39;1.40;;;0.80;;
13568;SDS011;6856;51.460;7.158;2023-07-16T01:14:16;2.27;;;1.00;;
13568;SDS011;6856;51.460;7.158;2023-07-16T01:16:50;2.55;;;1.08;;
13568;SDS011;6856;51.460;7.158;2023-07-16T01:19:30;2.93;;;1.20;;
13568;SDS011;6856;51.460;7.158;2023-07-16T01:22:10;1.60;;;1.10;;
13568;SDS011;6856;51.460;7.158;2023-07-16T01:25:18;3.00;;;1.30;;
13568;SDS011;6856;51.460;7.158;2023-07-16T01:28:28;1.85;;;1.10;;
13568;SDS011;6856;51.460;7.158;2023-07-16T01:31:27;1.90;;;1.02;;
13568;SDS011;6856;51.460;7.158;2023-07-16T01:34:02;3.42;;;1.35;;
13568;SDS011;6856;51.460;7.158;2023-07-16T01:36:38;1.75;;;1.00;;
13568;SDS011;6856;51.460;7.158;2023-07-16T01:39:13;2.05;;;1.27;;
13568;SDS011;6856;51.460;7.158;2023-07-16T01:41:48;2.57;;;1.03;;
13568;SDS011;6856;51.460;7.158;2023-07-16T01:44:23;2.25;;;1.10;;
13568;SDS011;6856;51.460;7.158;2023-07-16T01:49:55;1.87;;;1.30;;
13568;SDS011;6856;51.460;7.158;2023-07-16T01:52:29;1.30;;;1.00;;
13568;SDS011;6856;51.460;7.158;2023-07-16T01:55:03;2.13;;;1.10;;
13568;SDS011;6856;51.460;7.158;2023-07-16T01:57:38;1.73;;;0.90;;
13568;SDS011;6856;51.460;7.158;2023-07-16T02:00:12;1.67;;;1.13;;
13568;SDS011;6856;51.460;7.158;2023-07-16T02:02:48;1.80;;;1.03;;
13568;SDS011;6856;51.460;7.158;2023-07-16T02:05:21;1.50;;;0.90;;
13568;SDS011;6856;51.460;7.158;2023-07-16T02:07:55;2.85;;;1.15;;
13568;SDS011;6856;51.460;7.158;2023-07-16T02:10:29;2.42;;;1.10;;
13568;SDS011;6856;51.460;7.158;2023-07-16T02:13:03;3.00;;;0.90;;
13568;SDS011;6856;51.460;7.158;2023-07-16T02:15:37;2.00;;;1.13;;
13568;SDS011;6856;51.460;7.158;2023-07-16T02:18:12;2.30;;;1.20;;
13568;SDS011;6856;51.460;7.158;2023-07-16T02:20:47;2.37;;;1.30;;
13568;SDS011;6856;51.460;7.158;2023-07-16T02:23:20;1.63;;;0.90;;
13568;SDS011;6856;51.460;7.158;2023-07-16T02:25:54;1.60;;;1.17;;
13568;SDS011;6856;51.460;7.158;2023-07-16T02:28:28;1.97;;;0.93;;
13568;SDS011;6856;51.460;7.158;2023-07-16T02:31:03;2.07;;;1.10;;
13568;SDS011;6856;51.460;7.158;2023-07-16T02:33:39;2.47;;;1.17;;
13568;SDS011;6856;51.460;7.158;2023-07-16T02:36:15;1.97;;;1.10;;
13568;SDS011;6856;51.460;7.158;2023-07-16T02:38:49;1.80;;;1.13;;
13568;SDS011;6856;51.460;7.158;2023-07-16T02:41:23;2.47;;;1.17;;
13568;SDS011;6856;51.460;7.158;2023-07-16T02:43:59;2.30;;;1.13;;
13568;SDS011;6856;51.460;7.158;2023-07-16T02:46:34;1.93;;;1.37;;
13568;SDS011;6856;51.460;7.158;2023-07-16T02:49:10;2.30;;;0.90;;
13568;SDS011;6856;51.460;7.158;2023-07-16T02:51:43;1.70;;;1.10;;
13568;SDS011;6856;51.460;7.158;2023-07-16T02:54:17;2.83;;;1.27;;
13568;SDS011;6856;51.460;7.158;2023-07-16T02:56:51;1.15;;;1.00;;
13568;SDS011;6856;51.460;7.158;2023-07-16T02:59:25;3.97;;;1.30;;
13568;SDS011;6856;51.460;7.158;2023-07-16T03:01:58;3.10;;;1.10;;
13568;SDS011;6856;51.460;7.158;2023-07-16T03:04:33;1.77;;;1.10;;
13568;SDS011;6856;51.460;7.158;2023-07-16T03:07:07;1.97;;;1.23;;
13568;SDS011;6856;51.460;7.158;2023-07-16T03:09:41;1.00;;;0.90;;
13568;SDS011;6856;51.460;7.158;2023-07-16T03:12:15;1.37;;;0.93;;
13568;SDS011;6856;51.460;7.158;2023-07-16T03:14:49;2.13;;;1.03;;
13568;SDS011;6856;51.460;7.158;2023-07-16T03:17:26;1.53;;;1.20;;
13568;SDS011;6856;51.460;7.158;2023-07-16T03:20:01;2.80;;;1.30;;
13568;SDS011;6856;51.460;7.158;2023-07-16T03:22:37;3.23;;;1.20;;
13568;SDS011;6856;51.460;7.158;2023-07-16T03:25:10;1.50;;;1.10;;
13568;SDS011;6856;51.460;7.158;2023-07-16T03:27:44;2.43;;;1.50;;
13568;SDS011;6856;51.460;7.158;2023-07-16T03:30:18;1.60;;;1.20;;
13568;SDS011;6856;51.460;7.158;2023-07-16T03:32:51;2.43;;;1.50;;
13568;SDS011;6856;51.460;7.158;2023-07-16T03:35:27;3.37;;;1.00;;
13568;SDS011;6856;51.460;7.158;2023-07-16T03:38:01;2.10;;;1.30;;
13568;SDS011;6856;51.460;7.158;2023-07-16T03:40:35;1.93;;;1.10;;
13568;SDS011;6856;51.460;7.158;2023-07-16T03:43:09;2.13;;;1.33;;
13568;SDS011;6856;51.460;7.158;2023-07-16T03:45:43;4.80;;;1.73;;
13568;SDS011;6856;51.460;7.158;2023-07-16T03:48:18;1.63;;;1.00;;
13568;SDS011;6856;51.460;7.158;2023-07-16T03:50:54;2.73;;;1.43;;
13568;SDS011;6856;51.460;7.158;2023-07-16T03:53:27;2.00;;;1.00;;
13568;SDS011;6856;51.460;7.158;2023-07-16T03:56:02;2.40;;;1.20;;
13568;SDS011;6856;51.460;7.158;2023-07-16T03:58:36;3.23;;;1.50;;
13568;SDS011;6856;51.460;7.158;2023-07-16T04:01:10;5.97;;;2.00;;
13568;SDS011;6856;51.460;7.158;2023-07-16T04:03:44;2.07;;;1.10;;
13568;SDS011;6856;51.460;7.158;2023-07-16T04:06:20;2.50;;;1.30;;
13568;SDS011;6856;51.460;7.158;2023-07-16T04:08:54;2.90;;;1.47;;
13568;SDS011;6856;51.460;7.158;2023-07-16T04:11:28;4.03;;;1.23;;
13568;SDS011;6856;51.460;7.158;2023-07-16T04:14:02;5.00;;;1.43;;
13568;SDS011;6856;51.460;7.158;2023-07-16T04:16:39;2.03;;;1.33;;
13568;SDS011;6856;51.460;7.158;2023-07-16T04:19:13;2.23;;;1.13;;
13568;SDS011;6856;51.460;7.158;2023-07-16T04:21:49;2.47;;;1.57;;
13568;SDS011;6856;51.460;7.158;2023-07-16T04:24:23;2.90;;;1.73;;
13568;SDS011;6856;51.460;7.158;2023-07-16T04:26:58;2.40;;;1.23;;
13568;SDS011;6856;51.460;7.158;2023-07-16T04:29:32;3.03;;;1.50;;
13568;SDS011;6856;51.460;7.158;2023-07-16T04:32:07;2.47;;;1.20;;
13568;SDS011;6856;51.460;7.158;2023-07-16T04:34:41;5.13;;;1.43;;
13568;SDS011;6856;51.460;7.158;2023-07-16T04:37:17;1.83;;;1.20;;
13568;SDS011;6856;51.460;7.158;2023-07-16T04:39:51;2.23;;;1.30;;
13568;SDS011;6856;51.460;7.158;2023-07-16T04:42:24;3.13;;;1.40;;
13568;SDS011;6856;51.460;7.158;2023-07-16T04:44:58;4.10;;;1.40;;
13568;SDS011;6856;51.460;7.158;2023-07-16T04:47:32;2.27;;;1.27;;
13568;SDS011;6856;51.460;7.158;2023-07-16T04:50:07;4.17;;;1.67;;
13568;SDS011;6856;51.460;7.158;2023-07-16T04:52:43;2.10;;;1.27;;
13568;SDS011;6856;51.460;7.158;2023-07-16T04:55:17;1.47;;;1.27;;
13568;SDS011;6856;51.460;7.158;2023-07-16T04:57:51;3.07;;;1.47;;
13568;SDS011;6856;51.460;7.158;2023-07-16T05:00:26;3.00;;;1.57;;
13568;SDS011;6856;51.460;7.158;2023-07-16T05:03:01;3.13;;;1.30;;
13568;SDS011;6856;51.460;7.158;2023-07-16T05:05:35;3.73;;;1.40;;
13568;SDS011;6856;51.460;7.158;2023-07-16T05:08:11;2.37;;;1.40;;
13568;SDS011;6856;51.460;7.158;2023-07-16T05:10:45;3.80;;;1.57;;
13568;SDS011;6856;51.460;7.158;2023-07-16T05:13:19;3.23;;;1.73;;
13568;SDS011;6856;51.460;7.158;2023-07-16T05:15:53;5.50;;;1.70;;
13568;SDS011;6856;51.460;7.158;2023-07-16T05:18:27;3.10;;;1.97;;
13568;SDS011;6856;51.460;7.158;2023-07-16T05:21:00;5.13;;;2.13;;
13568;SDS011;6856;51.460;7.158;2023-07-16T05:23:35;4.30;;;2.20;;
13568;SDS011;6856;51.460;7.158;2023-07-16T05:26:10;3.63;;;1.63;;
13568;SDS011;6856;51.460;7.158;2023-07-16T05:28:44;3.83;;;1.63;;
13568;SDS011;6856;51.460;7.158;2023-07-16T05:31:18;1.50;;;1.30;;
13568;SDS011;6856;51.460;7.158;2023-07-16T05:33:52;3.17;;;1.50;;
13568;SDS011;6856;51.460;7.158;2023-07-16T05:36:26;4.83;;;1.77;;
13568;SDS011;6856;51.460;7.158;2023-07-16T05:39:02;2.47;;;1.63;;
13568;SDS011;6856;51.460;7.158;2023-07-16T05:41:36;5.60;;;1.60;;
13568;SDS011;6856;51.460;7.158;2023-07-16T05:44:09;3.57;;;1.80;;
13568;SDS011;6856;51.460;7.158;2023-07-16T05:46:43;3.00;;;1.67;;
13568;SDS011;6856;51.460;7.158;2023-07-16T05:49:17;2.67;;;1.60;;
13568;SDS011;6856;51.460;7.158;2023-07-16T05:51:51;2.93;;;1.60;;
13568;SDS011;6856;51.460;7.158;2023-07-16T05:54:28;3.97;;;1.83;;
13568;SDS011;6856;51.460;7.158;2023-07-16T05:57:02;3.23;;;1.90;;
13568;SDS011;6856;51.460;7.158;2023-07-16T05:59:38;3.43;;;1.87;;
13568;SDS011;6856;51.460;7.158;2023-07-16T06:02:12;4.03;;;1.83;;
13568;SDS011;6856;51.460;7.158;2023-07-16T06:04:46;3.53;;;2.20;;
13568;SDS011;6856;51.460;7.158;2023-07-16T06:07:20;5.40;;;2.00;;
13568;SDS011;6856;51.460;7.158;2023-07-16T06:09:56;4.50;;;2.10;;
13568;SDS011;6856;51.460;7.158;2023-07-16T06:12:30;4.33;;;2.33;;
13568;SDS011;6856;51.460;7.158;2023-07-16T06:15:04;2.90;;;1.77;;
13568;SDS011;6856;51.460;7.158;2023-07-16T06:17:41;3.00;;;1.83;;
13568;SDS011;6856;51.460;7.158;2023-07-16T06:20:16;4.73;;;2.10;;
13568;SDS011;6856;51.460;7.158;2023-07-16T06:22:50;4.20;;;2.13;;
13568;SDS011;6856;51.460;7.158;2023-07-16T06:25:26;4.70;;;2.40;;
13568;SDS011;6856;51.460;7.158;2023-07-16T06:28:00;3.38;;;2.25;;
13568;SDS011;6856;51.460;7.158;2023-07-16T06:30:34;4.43;;;2.63;;
13568;SDS011;6856;51.460;7.158;2023-07-16T06:33:08;4.83;;;2.40;;
13568;SDS011;6856;51.460;7.158;2023-07-16T06:35:43;4.83;;;2.57;;
13568;SDS011;6856;51.460;7.158;2023-07-16T06:38:19;5.00;;;2.40;;
13568;SDS011;6856;51.460;7.158;2023-07-16T06:40:54;6.37;;;2.60;;
13568;SDS011;6856;51.460;7.158;2023-07-16T06:43:28;6.00;;;2.77;;
13568;SDS011;6856;51.460;7.158;2023-07-16T06:46:02;4.50;;;2.90;;
13568;SDS011;6856;51.460;7.158;2023-07-16T06:48:36;4.03;;;2.60;;
13568;SDS011;6856;51.460;7.158;2023-07-16T06:51:10;7.95;;;2.80;;
13568;SDS011;6856;51.460;7.158;2023-07-16T06:53:44;4.97;;;2.58;;
13568;SDS011;6856;51.460;7.158;2023-07-16T06:56:19;4.77;;;2.77;;
13568;SDS011;6856;51.460;7.158;2023-07-16T06:58:53;4.70;;;2.60;;
13568;SDS011;6856;51.460;7.158;2023-07-16T07:01:27;4.70;;;2.65;;
13568;SDS011;6856;51.460;7.158;2023-07-16T07:04:01;4.50;;;2.70;;
13568;SDS011;6856;51.460;7.158;2023-07-16T07:06:35;4.50;;;2.57;;
13568;SDS011;6856;51.460;7.158;2023-07-16T07:09:09;5.13;;;2.60;;
13568;SDS011;6856;51.460;7.158;2023-07-16T07:11:44;4.93;;;2.60;;
13568;SDS011;6856;51.460;7.158;2023-07-16T07:14:18;5.25;;;3.05;;
13568;SDS011;6856;51.460;7.158;2023-07-16T07:16:52;5.30;;;2.53;;
13568;SDS011;6856;51.460;7.158;2023-07-16T07:19:26;5.43;;;2.90;;
13568;SDS011;6856;51.460;7.158;2023-07-16T07:22:00;5.40;;;2.50;;
13568;SDS011;6856;51.460;7.158;2023-07-16T07:24:37;4.60;;;2.70;;
13568;SDS011;6856;51.460;7.158;2023-07-16T07:27:14;4.45;;;3.00;;
13568;SDS011;6856;51.460;7.158;2023-07-16T07:29:48;4.38;;;2.53;;
13568;SDS011;6856;51.460;7.158;2023-07-16T07:32:23;6.22;;;3.20;;
13568;SDS011;6856;51.460;7.158;2023-07-16T07:34:58;3.65;;;2.47;;
13568;SDS011;6856;51.460;7.158;2023-07-16T07:37:34;4.63;;;2.58;;
13568;SDS011;6856;51.460;7.158;2023-07-16T07:40:08;4.97;;;3.22;;
13568;SDS011;6856;51.460;7.158;2023-07-16T07:42:44;5.22;;;2.75;;
13568;SDS011;6856;51.460;7.158;2023-07-16T07:45:18;4.80;;;2.72;;
13568;SDS011;6856;51.460;7.158;2023-07-16T07:47:52;4.22;;;2.80;;
13568;SDS011;6856;51.460;7.158;2023-07-16T07:50:26;4.95;;;2.78;;
13568;SDS011;6856;51.460;7.158;2023-07-16T07:53:00;4.72;;;2.72;;
13568;SDS011;6856;51.460;7.158;2023-07-16T07:55:35;3.95;;;2.67;;
13568;SDS011;6856;51.460;7.158;2023-07-16T07:58:10;3.53;;;2.55;;
13568;SDS011;6856;51.460;7.158;2023-07-16T08:00:45;5.60;;;2.67;;
13568;SDS011;6856;51.460;7.158;2023-07-16T08:03:18;4.32;;;2.45;;
13568;SDS011;6856;51.460;7.158;2023-07-16T08:05:53;4.85;;;3.00;;
13568;SDS011;6856;51.460;7.158;2023-07-16T08:08:26;5.38;;;2.80;;
13568;SDS011;6856;51.460;7.158;2023-07-16T08:11:00;4.57;;;2.83;;
13568;SDS011;6856;51.460;7.158;2023-07-16T08:13:36;4.50;;;2.85;;
13568;SDS011;6856;51.460;7.158;2023-07-16T08:16:11;5.85;;;2.92;;
13568;SDS011;6856;51.460;7.158;2023-07-16T08:18:45;4.65;;;2.63;;
13568;SDS011;6856;51.460;7.158;2023-07-16T08:21:19;6.20;;;3.05;;
13568;SDS011;6856;51.460;7.158;2023-07-16T08:23:53;4.95;;;2.78;;
13568;SDS011;6856;51.460;7.158;2023-07-16T08:26:26;5.18;;;2.85;;
13568;SDS011;6856;51.460;7.158;2023-07-16T08:29:02;5.93;;;2.97;;
13568;SDS011;6856;51.460;7.158;2023-07-16T08:31:36;4.88;;;2.95;;
13568;SDS011;6856;51.460;7.158;2023-07-16T08:34:10;5.72;;;2.97;;
13568;SDS011;6856;51.460;7.158;2023-07-16T08:36:44;4.65;;;2.95;;
13568;SDS011;6856;51.460;7.158;2023-07-16T08:39:18;4.65;;;2.95;;
13568;SDS011;6856;51.460;7.158;2023-07-16T08:41:56;4.78;;;2.83;;
13568;SDS011;6856;51.460;7.158;2023-07-16T08:44:32;6.05;;;2.75;;
13568;SDS011;6856;51.460;7.158;2023-07-16T08:47:06;4.40;;;2.53;;
13568;SDS011;6856;51.460;7.158;2023-07-16T08:49:40;4.85;;;2.83;;
13568;SDS011;6856;51.460;7.158;2023-07-16T08:52:19;4.43;;;2.70;;
13568;SDS011;6856;51.460;7.158;2023-07-16T08:54:54;3.60;;;2.47;;
13568;SDS011;6856;51.460;7.158;2023-07-16T08:57:29;4.10;;;2.63;;
13568;SDS011;6856;51.460;7.158;2023-07-16T09:00:07;5.75;;;2.67;;
13568;SDS011;6856;51.460;7.158;2023-07-16T09:02:43;3.47;;;2.30;;
13568;SDS011;6856;51.460;7.158;2023-07-16T09:05:17;5.55;;;2.88;;
13568;SDS011;6856;51.460;7.158;2023-07-16T09:08:09;3.83;;;2.45;;
13568;SDS011;6856;51.460;7.158;2023-07-16T09:10:52;6.10;;;2.35;;
13568;SDS011;6856;51.460;7.158;2023-07-16T09:13:26;4.75;;;2.70;;
13568;SDS011;6856;51.460;7.158;2023-07-16T09:16:04;3.83;;;2.60;;
13568;SDS011;6856;51.460;7.158;2023-07-16T09:18:39;3.65;;;2.38;;
13568;SDS011;6856;51.460;7.158;2023-07-16T09:21:14;5.40;;;2.50;;
13568;SDS011;6856;51.460;7.158;2023-07-16T09:23:48;7.13;;;2.70;;
13568;SDS011;6856;51.460;7.158;2023-07-16T09:26:23;3.45;;;2.10;;
13568;SDS011;6856;51.460;7.158;2023-07-16T09:28:57;3.92;;;2.15;;
13568;SDS011;6856;51.460;7.158;2023-07-16T09:31:34;3.65;;;2.42;;
13568;SDS011;6856;51.460;7.158;2023-07-16T09:34:09;4.03;;;2.03;;
13568;SDS011;6856;51.460;7.158;2023-07-16T09:36:43;5.28;;;2.35;;
13568;SDS011;6856;51.460;7.158;2023-07-16T09:39:20;3.92;;;2.50;;
13568;SDS011;6856;51.460;7.158;2023-07-16T09:41:55;4.10;;;2.40;;
13568;SDS011;6856;51.460;7.158;2023-07-16T09:44:30;4.40;;;2.58;;
13568;SDS011;6856;51.460;7.158;2023-07-16T09:47:06;4.47;;;2.47;;
13568;SDS011;6856;51.460;7.158;2023-07-16T09:49:39;3.63;;;1.88;;
13568;SDS011;6856;51.460;7.158;2023-07-16T09:52:15;3.15;;;2.28;;
13568;SDS011;6856;51.460;7.158;2023-07-16T09:54:49;3.58;;;2.47;;
13568;SDS011;6856;51.460;7.158;2023-07-16T09:57:32;4.88;;;2.67;;
13568;SDS011;6856;51.460;7.158;2023-07-16T10:00:10;4.80;;;2.60;;
13568;SDS011;6856;51.460;7.158;2023-07-16T10:02:49;5.35;;;2.20;;
13568;SDS011;6856;51.460;7.158;2023-07-16T10:05:25;3.95;;;2.28;;
13568;SDS011;6856;51.460;7.158;2023-07-16T10:08:00;3.00;;;1.90;;
13568;SDS011;6856;51.460;7.158;2023-07-16T10:10:40;3.72;;;2.28;;
13568;SDS011;6856;51.460;7.158;2023-07-16T10:13:16;3.90;;;2.22;;
13568;SDS011;6856;51.460;7.158;2023-07-16T10:15:50;3.25;;;2.17;;
13568;SDS011;6856;51.460;7.158;2023-07-16T10:18:28;5.00;;;2.58;;
13568;SDS011;6856;51.460;7.158;2023-07-16T10:21:04;4.10;;;2.58;;
13568;SDS011;6856;51.460;7.158;2023-07-16T10:23:40;3.85;;;2.42;;
13568;SDS011;6856;51.460;7.158;2023-07-16T10:26:16;3.75;;;2.25;;
13568;SDS011;6856;51.460;7.158;2023-07-16T10:28:51;3.45;;;2.20;;
13568;SDS011;6856;51.460;7.158;2023-07-16T10:31:25;3.72;;;2.35;;
13568;SDS011;6856;51.460;7.158;2023-07-16T10:34:01;4.60;;;2.17;;
13568;SDS011;6856;51.460;7.158;2023-07-16T10:36:37;4.85;;;2.33;;
13568;SDS011;6856;51.460;7.158;2023-07-16T10:39:11;5.00;;;2.20;;
13568;SDS011;6856;51.460;7.158;2023-07-16T10:41:45;4.45;;;2.05;;
13568;SDS011;6856;51.460;7.158;2023-07-16T10:44:20;5.78;;;2.38;;
13568;SDS011;6856;51.460;7.158;2023-07-16T10:46:55;4.75;;;1.98;;
13568;SDS011;6856;51.460;7.158;2023-07-16T10:49:30;3.55;;;2.13;;
13568;SDS011;6856;51.460;7.158;2023-07-16T10:52:04;3.05;;;2.28;;
13568;SDS011;6856;51.460;7.158;2023-07-16T10:54:39;4.07;;;2.03;;
13568;SDS011;6856;51.460;7.158;2023-07-16T10:57:13;4.60;;;2.22;;
13568;SDS011;6856;51.460;7.158;2023-07-16T10:59:50;2.85;;;1.92;;
13568;SDS011;6856;51.460;7.158;2023-07-16T11:02:24;3.30;;;1.80;;
13568;SDS011;6856;51.460;7.158;2023-07-16T11:05:02;3.70;;;2.08;;
13568;SDS011;6856;51.460;7.158;2023-07-16T11:07:36;3.65;;;1.92;;
13568;SDS011;6856;51.460;7.158;2023-07-16T11:10:10;4.25;;;2.22;;
13568;SDS011;6856;51.460;7.158;2023-07-16T11:12:44;2.22;;;1.90;;
13568;SDS011;6856;51.460;7.158;2023-07-16T11:15:31;2.95;;;2.00;;
13568;SDS011;6856;51.460;7.158;2023-07-16T11:18:05;3.50;;;1.90;;
13568;SDS011;6856;51.460;7.158;2023-07-16T11:20:42;3.20;;;1.83;;
13568;SDS011;6856;51.460;7.158;2023-07-16T11:23:16;3.67;;;2.38;;
13568;SDS011;6856;51.460;7.158;2023-07-16T11:25:51;2.72;;;1.88;;
13568;SDS011;6856;51.460;7.158;2023-07-16T11:28:34;3.92;;;1.98;;
13568;SDS011;6856;51.460;7.158;2023-07-16T11:31:10;4.25;;;2.40;;
13568;SDS011;6856;51.460;7.158;2023-07-16T11:33:46;3.75;;;1.80;;
13568;SDS011;6856;51.460;7.158;2023-07-16T11:36:21;3.75;;;2.17;;
13568;SDS011;6856;51.460;7.158;2023-07-16T11:38:56;2.92;;;2.10;;
13568;SDS011;6856;51.460;7.158;2023-07-16T11:41:29;3.45;;;2.13;;
13568;SDS011;6856;51.460;7.158;2023-07-16T11:44:04;4.05;;;2.03;;
13568;SDS011;6856;51.460;7.158;2023-07-16T11:46:41;3.03;;;2.08;;
13568;SDS011;6856;51.460;7.158;2023-07-16T11:49:20;3.33;;;2.03;;
13568;SDS011;6856;51.460;7.158;2023-07-16T11:51:55;4.43;;;2.08;;
13568;SDS011;6856;51.460;7.158;2023-07-16T11:54:30;3.92;;;2.08;;
13568;SDS011;6856;51.460;7.158;2023-07-16T11:57:04;2.55;;;1.90;;
13568;SDS011;6856;51.460;7.158;2023-07-16T11:59:39;4.03;;;2.13;;
13568;SDS011;6856;51.460;7.158;2023-07-16T12:02:14;3.70;;;2.17;;
13568;SDS011;6856;51.460;7.158;2023-07-16T12:04:48;5.32;;;2.42;;
13568;SDS011;6856;51.460;7.158;2023-07-16T12:07:32;5.68;;;2.28;;
13568;SDS011;6856;51.460;7.158;2023-07-16T12:10:08;2.40;;;1.88;;
13568;SDS011;6856;51.460;7.158;2023-07-16T12:12:42;4.55;;;2.30;;
13568;SDS011;6856;51.460;7.158;2023-07-16T12:15:15;5.05;;;2.20;;
13568;SDS011;6856;51.460;7.158;2023-07-16T12:17:49;3.97;;;2.00;;
13568;SDS011;6856;51.460;7.158;2023-07-16T12:20:23;8.07;;;2.38;;
13568;SDS011;6856;51.460;7.158;2023-07-16T12:22:58;4.00;;;1.95;;
13568;SDS011;6856;51.460;7.158;2023-07-16T12:25:31;2.83;;;2.05;;
13568;SDS011;6856;51.460;7.158;2023-07-16T12:28:05;3.28;;;1.92;;
13568;SDS011;6856;51.460;7.158;2023-07-16T12:30:39;3.47;;;2.28;;
13568;SDS011;6856;51.460;7.158;2023-07-16T12:33:14;3.55;;;2.20;;
13568;SDS011;6856;51.460;7.158;2023-07-16T12:35:48;4.75;;;2.30;;
13568;SDS011;6856;51.460;7.158;2023-07-16T12:38:24;2.88;;;1.95;;
13568;SDS011;6856;51.460;7.158;2023-07-16T12:40:58;3.20;;;2.10;;
13568;SDS011;6856;51.460;7.158;2023-07-16T12:43:32;4.22;;;1.95;;
13568;SDS011;6856;51.460;7.158;2023-07-16T12:46:07;3.50;;;2.13;;
13568;SDS011;6856;51.460;7.158;2023-07-16T12:48:41;3.30;;;2.20;;
13568;SDS011;6856;51.460;7.158;2023-07-16T12:51:15;3.78;;;1.98;;
13568;SDS011;6856;51.460;7.158;2023-07-16T12:53:50;2.65;;;2.13;;
13568;SDS011;6856;51.460;7.158;2023-07-16T12:56:24;3.00;;;1.80;;
13568;SDS011;6856;51.460;7.158;2023-07-16T12:58:59;3.83;;;2.13;;
13568;SDS011;6856;51.460;7.158;2023-07-16T13:01:32;3.00;;;2.10;;
13568;SDS011;6856;51.460;7.158;2023-07-16T13:04:06;5.10;;;2.17;;
13568;SDS011;6856;51.460;7.158;2023-07-16T13:06:40;3.65;;;1.92;;
13568;SDS011;6856;51.460;7.158;2023-07-16T13:09:18;3.60;;;2.28;;
13568;SDS011;6856;51.460;7.158;2023-07-16T13:11:52;3.15;;;2.03;;
13568;SDS011;6856;51.460;7.158;2023-07-16T13:14:25;4.85;;;1.85;;
13568;SDS011;6856;51.460;7.158;2023-07-16T13:16:59;3.25;;;2.08;;
13568;SDS011;6856;51.460;7.158;2023-07-16T13:19:36;3.20;;;2.10;;
13568;SDS011;6856;51.460;7.158;2023-07-16T13:22:09;3.90;;;2.40;;
13568;SDS011;6856;51.460;7.158;2023-07-16T13:24:45;3.35;;;2.20;;
13568;SDS011;6856;51.460;7.158;2023-07-16T13:27:21;3.15;;;1.80;;
13568;SDS011;6856;51.460;7.158;2023-07-16T13:29:56;3.78;;;2.10;;
13568;SDS011;6856;51.460;7.158;2023-07-16T13:32:30;3.00;;;2.20;;
13568;SDS011;6856;51.460;7.158;2023-07-16T13:35:04;3.53;;;2.35;;
13568;SDS011;6856;51.460;7.158;2023-07-16T13:37:39;4.18;;;2.42;;
13568;SDS011;6856;51.460;7.158;2023-07-16T13:40:14;3.45;;;1.85;;
13568;SDS011;6856;51.460;7.158;2023-07-16T13:42:48;4.00;;;2.30;;
13568;SDS011;6856;51.460;7.158;2023-07-16T13:45:22;3.95;;;2.10;;
13568;SDS011;6856;51.460;7.158;2023-07-16T13:47:57;10.20;;;2.40;;
13568;SDS011;6856;51.460;7.158;2023-07-16T13:50:31;3.70;;;2.50;;
13568;SDS011;6856;51.460;7.158;2023-07-16T13:53:05;3.17;;;1.90;;
13568;SDS011;6856;51.460;7.158;2023-07-16T13:55:41;4.10;;;1.98;;
13568;SDS011;6856;51.460;7.158;2023-07-16T13:58:15;7.15;;;2.20;;
13568;SDS011;6856;51.460;7.158;2023-07-16T14:00:49;4.05;;;2.47;;
13568;SDS011;6856;51.460;7.158;2023-07-16T14:03:23;3.08;;;2.08;;
13568;SDS011;6856;51.460;7.158;2023-07-16T14:05:57;2.83;;;1.90;;
13568;SDS011;6856;51.460;7.158;2023-07-16T14:08:31;3.08;;;1.85;;
13568;SDS011;6856;51.460;7.158;2023-07-16T14:11:09;3.10;;;1.98;;
13568;SDS011;6856;51.460;7.158;2023-07-16T14:13:42;3.40;;;2.20;;
13568;SDS011;6856;51.460;7.158;2023-07-16T14:16:16;3.95;;;2.22;;
13568;SDS011;6856;51.460;7.158;2023-07-16T14:18:50;3.22;;;2.08;;
13568;SDS011;6856;51.460;7.158;2023-07-16T14:21:26;2.58;;;1.90;;
13568;SDS011;6856;51.460;7.158;2023-07-16T14:24:02;2.45;;;1.98;;
13568;SDS011;6856;51.460;7.158;2023-07-16T14:26:38;4.40;;;2.35;;
13568;SDS011;6856;51.460;7.158;2023-07-16T14:29:12;3.40;;;2.25;;
13568;SDS011;6856;51.460;7.158;2023-07-16T14:31:45;3.70;;;1.95;;
13568;SDS011;6856;51.460;7.158;2023-07-16T14:34:19;4.03;;;2.20;;
13568;SDS011;6856;51.460;7.158;2023-07-16T14:36:53;3.53;;;2.28;;
13568;SDS011;6856;51.460;7.158;2023-07-16T14:39:27;2.92;;;2.00;;
13568;SDS011;6856;51.460;7.158;2023-07-16T14:42:02;3.95;;;2.15;;
13568;SDS011;6856;51.460;7.158;2023-07-16T14:44:37;4.40;;;2.33;;
13568;SDS011;6856;51.460;7.158;2023-07-16T14:47:10;4.43;;;2.70;;
13568;SDS011;6856;51.460;7.158;2023-07-16T14:49:44;3.10;;;1.85;;
13568;SDS011;6856;51.460;7.158;2023-07-16T14:52:18;3.92;;;2.17;;
13568;SDS011;6856;51.460;7.158;2023-07-16T14:54:52;5.22;;;2.33;;
13568;SDS011;6856;51.460;7.158;2023-07-16T14:57:28;4.47;;;2.67;;
13568;SDS011;6856;51.460;7.158;2023-07-16T15:00:01;3.35;;;2.05;;
13568;SDS011;6856;51.460;7.158;2023-07-16T15:02:39;2.42;;;1.80;;
13568;SDS011;6856;51.460;7.158;2023-07-16T15:05:13;4.68;;;2.17;;
13568;SDS011;6856;51.460;7.158;2023-07-16T15:07:47;2.58;;;1.77;;
13568;SDS011;6856;51.460;7.158;2023-07-16T15:10:21;3.78;;;2.25;;
13568;SDS011;6856;51.460;7.158;2023-07-16T15:12:56;4.53;;;2.33;;
13568;SDS011;6856;51.460;7.158;2023-07-16T15:15:30;3.00;;;1.88;;
13568;SDS011;6856;51.460;7.158;2023-07-16T15:18:04;3.58;;;2.05;;
13568;SDS011;6856;51.460;7.158;2023-07-16T15:20:38;2.55;;;1.95;;
13568;SDS011;6856;51.460;7.158;2023-07-16T15:23:12;2.80;;;2.00;;
13568;SDS011;6856;51.460;7.158;2023-07-16T15:25:46;2.22;;;1.70;;
13568;SDS011;6856;51.460;7.158;2023-07-16T15:28:22;2.33;;;1.63;;
13568;SDS011;6856;51.460;7.158;2023-07-16T15:30:56;3.58;;;2.00;;
13568;SDS011;6856;51.460;7.158;2023-07-16T15:33:30;4.03;;;2.10;;
13568;SDS011;6856;51.460;7.158;2023-07-16T15:36:05;2.47;;;1.65;;
13568;SDS011;6856;51.460;7.158;2023-07-16T15:38:40;2.88;;;1.70;;
13568;SDS011;6856;51.460;7.158;2023-07-16T15:41:14;2.13;;;1.77;;
13568;SDS011;6856;51.460;7.158;2023-07-16T15:43:56;2.92;;;1.63;;
13568;SDS011;6856;51.460;7.158;2023-07-16T15:46:30;3.55;;;1.80;;
13568;SDS011;6856;51.460;7.158;2023-07-16T15:49:04;2.92;;;1.55;;
13568;SDS011;6856;51.460;7.158;2023-07-16T15:51:38;3.17;;;1.85;;